sensor_id;sensor_type;location;lat;lon;timestamp;P1;durP1;ratioP1;P2;durP2;ratioP2
57891;SDS011;43708;48.828;9.166;2023-04-03T00:01:07;0.90;;;0.75;;
57891;SDS011;43708;48.828;9.166;2023-04-03T00:03:34;1.23;;;0.60;;
57891;SDS011;43708;48.828;9.166;2023-04-03T00:05:59;0.60;;;0.60;;
57891;SDS011;43708;48.828;9.166;2023-04-03T00:08:25;0.90;;;0.70;;
57891;SDS011;43708;48.828;9.166;2023-04-03T00:10:51;0.60;;;0.60;;
57891;SDS011;43708;48.828;9.166;2023-04-03T00:13:17;0.50;;;0.50;;
57891;SDS011;43708;48.828;9.166;2023-04-03T00:15:43;0.60;;;0.60;;
57891;SDS011;43708;48.828;9.166;2023-04-03T00:18:09;0.57;;;0.57;;
57891;SDS011;43708;48.828;9.166;2023-04-03T00:20:35;0.50;;;0.50;;
57891;SDS011;43708;48.828;9.166;2023-04-03T00:23:01;0.70;;;0.50;;
57891;SDS011;43708;48.828;9.166;2023-04-03T00:25:26;0.50;;;0.40;;
57891;SDS011;43708;48.828;9.166;2023-04-03T00:27:52;0.68;;;0.68;;
57891;SDS011;43708;48.828;9.166;2023-04-03T00:30:19;0.47;;;0.47;;
57891;SDS011;43708;48.828;9.166;2023-04-03T00:32:47;0.60;;;0.60;;
57891;SDS011;43708;48.828;9.166;2023-04-03T00:35:13;0.52;;;0.52;;
57891;SDS011;43708;48.828;9.166;2023-04-03T00:37:41;0.70;;;0.70;;
57891;SDS011;43708;48.828;9.166;2023-04-03T00:40:07;0.50;;;0.50;;
57891;SDS011;43708;48.828;9.166;2023-04-03T00:42:35;0.50;;;0.50;;
57891;SDS011;43708;48.828;9.166;2023-04-03T00:47:27;0.40;;;0.40;;
57891;SDS011;43708;48.828;9.166;2023-04-03T00:49:55;0.40;;;0.40;;
57891;SDS011;43708;48.828;9.166;2023-04-03T00:52:23;0.63;;;0.63;;
57891;SDS011;43708;48.828;9.166;2023-04-03T00:54:52;0.60;;;0.57;;
57891;SDS011;43708;48.828;9.166;2023-04-03T00:57:21;1.15;;;0.82;;
57891;SDS011;43708;48.828;9.166;2023-04-03T00:59:50;0.60;;;0.60;;
57891;SDS011;43708;48.828;9.166;2023-04-03T01:02:22;0.63;;;0.60;;
57891;SDS011;43708;48.828;9.166;2023-04-03T01:04:48;0.50;;;0.50;;
57891;SDS011;43708;48.828;9.166;2023-04-03T01:07:18;0.40;;;0.40;;
57891;SDS011;43708;48.828;9.166;2023-04-03T01:09:47;0.70;;;0.52;;
57891;SDS011;43708;48.828;9.166;2023-04-03T01:14:53;0.50;;;0.50;;
57891;SDS011;43708;48.828;9.166;2023-04-03T01:25:44;0.50;;;0.50;;
57891;SDS011;43708;48.828;9.166;2023-04-03T01:28:13;0.40;;;0.40;;
57891;SDS011;43708;48.828;9.166;2023-04-03T01:33:29;0.60;;;0.60;;
57891;SDS011;43708;48.828;9.166;2023-04-03T01:35:55;0.50;;;0.50;;
57891;SDS011;43708;48.828;9.166;2023-04-03T01:38:20;0.52;;;0.52;;
57891;SDS011;43708;48.828;9.166;2023-04-03T01:40:46;0.50;;;0.50;;
57891;SDS011;43708;48.828;9.166;2023-04-03T01:43:12;0.70;;;0.60;;
57891;SDS011;43708;48.828;9.166;2023-04-03T01:45:37;0.70;;;0.60;;
57891;SDS011;43708;48.828;9.166;2023-04-03T01:48:03;0.40;;;0.40;;
57891;SDS011;43708;48.828;9.166;2023-04-03T01:50:29;0.50;;;0.50;;
57891;SDS011;43708;48.828;9.166;2023-04-03T01:52:55;0.47;;;0.47;;
57891;SDS011;43708;48.828;9.166;2023-04-03T01:55:20;0.50;;;0.50;;
57891;SDS011;43708;48.828;9.166;2023-04-03T01:57:46;0.40;;;0.40;;
57891;SDS011;43708;48.828;9.166;2023-04-03T02:00:12;0.50;;;0.50;;
57891;SDS011;43708;48.828;9.166;2023-04-03T02:02:38;0.93;;;0.63;;
57891;SDS011;43708;48.828;9.166;2023-04-03T02:05:04;0.52;;;0.52;;
57891;SDS011;43708;48.828;9.166;2023-04-03T02:07:30;0.50;;;0.50;;
57891;SDS011;43708;48.828;9.166;2023-04-03T02:09:55;0.47;;;0.47;;
57891;SDS011;43708;48.828;9.166;2023-04-03T02:12:21;0.40;;;0.40;;
57891;SDS011;43708;48.828;9.166;2023-04-03T02:14:46;2.05;;;0.90;;
57891;SDS011;43708;48.828;9.166;2023-04-03T02:17:12;0.60;;;0.60;;
57891;SDS011;43708;48.828;9.166;2023-04-03T02:19:38;0.50;;;0.50;;
57891;SDS011;43708;48.828;9.166;2023-04-03T02:22:04;0.60;;;0.60;;
57891;SDS011;43708;48.828;9.166;2023-04-03T02:24:32;0.52;;;0.52;;
57891;SDS011;43708;48.828;9.166;2023-04-03T02:26:58;0.60;;;0.52;;
57891;SDS011;43708;48.828;9.166;2023-04-03T02:29:24;0.40;;;0.40;;
57891;SDS011;43708;48.828;9.166;2023-04-03T02:31:50;0.50;;;0.50;;
57891;SDS011;43708;48.828;9.166;2023-04-03T02:34:16;0.60;;;0.50;;
57891;SDS011;43708;48.828;9.166;2023-04-03T02:36:42;0.60;;;0.60;;
57891;SDS011;43708;48.828;9.166;2023-04-03T02:39:07;0.82;;;0.65;;
57891;SDS011;43708;48.828;9.166;2023-04-03T02:41:33;0.70;;;0.60;;
57891;SDS011;43708;48.828;9.166;2023-04-03T02:44:00;0.50;;;0.50;;
57891;SDS011;43708;48.828;9.166;2023-04-03T02:46:27;0.57;;;0.55;;
57891;SDS011;43708;48.828;9.166;2023-04-03T02:48:53;0.40;;;0.40;;
57891;SDS011;43708;48.828;9.166;2023-04-03T02:51:18;0.60;;;0.60;;
57891;SDS011;43708;48.828;9.166;2023-04-03T02:53:44;0.85;;;0.57;;
57891;SDS011;43708;48.828;9.166;2023-04-03T02:56:09;0.57;;;0.45;;
57891;SDS011;43708;48.828;9.166;2023-04-03T02:58:36;0.40;;;0.40;;
57891;SDS011;43708;48.828;9.166;2023-04-03T03:01:02;0.40;;;0.40;;
57891;SDS011;43708;48.828;9.166;2023-04-03T03:03:28;0.63;;;0.50;;
57891;SDS011;43708;48.828;9.166;2023-04-03T03:06:00;0.50;;;0.50;;
57891;SDS011;43708;48.828;9.166;2023-04-03T03:08:34;0.52;;;0.50;;
57891;SDS011;43708;48.828;9.166;2023-04-03T03:11:00;0.52;;;0.40;;
57891;SDS011;43708;48.828;9.166;2023-04-03T03:13:26;0.35;;;0.35;;
57891;SDS011;43708;48.828;9.166;2023-04-03T03:15:52;0.47;;;0.47;;
57891;SDS011;43708;48.828;9.166;2023-04-03T03:18:18;0.47;;;0.47;;
57891;SDS011;43708;48.828;9.166;2023-04-03T03:20:43;0.47;;;0.45;;
57891;SDS011;43708;48.828;9.166;2023-04-03T03:23:09;0.43;;;0.30;;
57891;SDS011;43708;48.828;9.166;2023-04-03T03:25:38;0.50;;;0.50;;
57891;SDS011;43708;48.828;9.166;2023-04-03T03:28:05;0.45;;;0.45;;
57891;SDS011;43708;48.828;9.166;2023-04-03T03:30:31;0.50;;;0.40;;
57891;SDS011;43708;48.828;9.166;2023-04-03T03:32:56;0.57;;;0.40;;
57891;SDS011;43708;48.828;9.166;2023-04-03T03:35:22;0.63;;;0.60;;
57891;SDS011;43708;48.828;9.166;2023-04-03T03:37:47;0.55;;;0.47;;
57891;SDS011;43708;48.828;9.166;2023-04-03T03:40:13;0.50;;;0.40;;
57891;SDS011;43708;48.828;9.166;2023-04-03T03:42:39;0.60;;;0.57;;
57891;SDS011;43708;48.828;9.166;2023-04-03T03:45:05;0.40;;;0.40;;
57891;SDS011;43708;48.828;9.166;2023-04-03T03:47:31;0.50;;;0.50;;
57891;SDS011;43708;48.828;9.166;2023-04-03T03:49:57;0.40;;;0.40;;
57891;SDS011;43708;48.828;9.166;2023-04-03T03:52:22;0.40;;;0.40;;
57891;SDS011;43708;48.828;9.166;2023-04-03T03:54:48;0.35;;;0.35;;
57891;SDS011;43708;48.828;9.166;2023-04-03T03:57:13;0.50;;;0.50;;
57891;SDS011;43708;48.828;9.166;2023-04-03T03:59:40;0.50;;;0.50;;
57891;SDS011;43708;48.828;9.166;2023-04-03T04:02:06;0.50;;;0.50;;
57891;SDS011;43708;48.828;9.166;2023-04-03T04:04:32;0.55;;;0.43;;
57891;SDS011;43708;48.828;9.166;2023-04-03T04:06:58;0.50;;;0.50;;
57891;SDS011;43708;48.828;9.166;2023-04-03T04:09:25;0.57;;;0.40;;
57891;SDS011;43708;48.828;9.166;2023-04-03T04:11:51;0.52;;;0.50;;
57891;SDS011;43708;48.828;9.166;2023-04-03T04:14:17;0.77;;;0.50;;
57891;SDS011;43708;48.828;9.166;2023-04-03T04:16:45;0.50;;;0.50;;
57891;SDS011;43708;48.828;9.166;2023-04-03T04:19:11;0.65;;;0.60;;
57891;SDS011;43708;48.828;9.166;2023-04-03T04:21:37;0.50;;;0.50;;
57891;SDS011;43708;48.828;9.166;2023-04-03T04:24:03;0.40;;;0.40;;
57891;SDS011;43708;48.828;9.166;2023-04-03T04:26:28;0.40;;;0.40;;
57891;SDS011;43708;48.828;9.166;2023-04-03T04:28:54;0.50;;;0.50;;
57891;SDS011;43708;48.828;9.166;2023-04-03T04:31:20;0.50;;;0.50;;
57891;SDS011;43708;48.828;9.166;2023-04-03T04:33:45;0.70;;;0.50;;
57891;SDS011;43708;48.828;9.166;2023-04-03T04:36:11;0.40;;;0.40;;
57891;SDS011;43708;48.828;9.166;2023-04-03T04:38:37;0.30;;;0.30;;
57891;SDS011;43708;48.828;9.166;2023-04-03T04:41:03;0.55;;;0.55;;
57891;SDS011;43708;48.828;9.166;2023-04-03T04:43:29;0.60;;;0.50;;
57891;SDS011;43708;48.828;9.166;2023-04-03T04:46:01;1.52;;;0.30;;
57891;SDS011;43708;48.828;9.166;2023-04-03T04:48:31;0.43;;;0.43;;
57891;SDS011;43708;48.828;9.166;2023-04-03T04:50:57;0.50;;;0.50;;
57891;SDS011;43708;48.828;9.166;2023-04-03T04:53:22;1.45;;;0.60;;
57891;SDS011;43708;48.828;9.166;2023-04-03T04:55:48;0.43;;;0.40;;
57891;SDS011;43708;48.828;9.166;2023-04-03T04:58:14;0.52;;;0.52;;
57891;SDS011;43708;48.828;9.166;2023-04-03T05:00:40;0.80;;;0.68;;
57891;SDS011;43708;48.828;9.166;2023-04-03T05:03:05;0.40;;;0.40;;
57891;SDS011;43708;48.828;9.166;2023-04-03T05:05:31;0.45;;;0.30;;
57891;SDS011;43708;48.828;9.166;2023-04-03T05:07:56;0.60;;;0.50;;
57891;SDS011;43708;48.828;9.166;2023-04-03T05:10:22;0.40;;;0.40;;
57891;SDS011;43708;48.828;9.166;2023-04-03T05:12:48;0.50;;;0.50;;
57891;SDS011;43708;48.828;9.166;2023-04-03T05:15:13;0.70;;;0.55;;
57891;SDS011;43708;48.828;9.166;2023-04-03T05:17:39;0.70;;;0.55;;
57891;SDS011;43708;48.828;9.166;2023-04-03T05:20:05;0.95;;;0.45;;
57891;SDS011;43708;48.828;9.166;2023-04-03T05:22:31;0.93;;;0.52;;
57891;SDS011;43708;48.828;9.166;2023-04-03T05:24:57;0.40;;;0.40;;
57891;SDS011;43708;48.828;9.166;2023-04-03T05:27:22;0.55;;;0.52;;
57891;SDS011;43708;48.828;9.166;2023-04-03T05:29:49;0.57;;;0.57;;
57891;SDS011;43708;48.828;9.166;2023-04-03T05:32:15;1.80;;;0.60;;
57891;SDS011;43708;48.828;9.166;2023-04-03T05:34:40;2.08;;;0.50;;
57891;SDS011;43708;48.828;9.166;2023-04-03T05:37:06;0.45;;;0.45;;
57891;SDS011;43708;48.828;9.166;2023-04-03T05:39:32;0.43;;;0.43;;
57891;SDS011;43708;48.828;9.166;2023-04-03T05:41:58;0.50;;;0.45;;
57891;SDS011;43708;48.828;9.166;2023-04-03T05:44:23;1.02;;;0.73;;
57891;SDS011;43708;48.828;9.166;2023-04-03T05:46:49;0.50;;;0.50;;
57891;SDS011;43708;48.828;9.166;2023-04-03T05:49:14;1.10;;;0.55;;
57891;SDS011;43708;48.828;9.166;2023-04-03T05:51:40;0.40;;;0.40;;
57891;SDS011;43708;48.828;9.166;2023-04-03T05:54:08;0.68;;;0.60;;
57891;SDS011;43708;48.828;9.166;2023-04-03T05:56:40;1.10;;;0.68;;
57891;SDS011;43708;48.828;9.166;2023-04-03T05:59:06;0.65;;;0.55;;
57891;SDS011;43708;48.828;9.166;2023-04-03T06:01:32;0.40;;;0.40;;
57891;SDS011;43708;48.828;9.166;2023-04-03T06:03:59;2.05;;;0.65;;
57891;SDS011;43708;48.828;9.166;2023-04-03T06:06:24;0.60;;;0.60;;
57891;SDS011;43708;48.828;9.166;2023-04-03T06:08:50;0.43;;;0.43;;
57891;SDS011;43708;48.828;9.166;2023-04-03T06:11:16;1.40;;;0.65;;
57891;SDS011;43708;48.828;9.166;2023-04-03T06:13:42;0.60;;;0.57;;
57891;SDS011;43708;48.828;9.166;2023-04-03T06:16:09;0.70;;;0.70;;
57891;SDS011;43708;48.828;9.166;2023-04-03T06:18:40;0.60;;;0.50;;
57891;SDS011;43708;48.828;9.166;2023-04-03T06:21:06;0.50;;;0.50;;
57891;SDS011;43708;48.828;9.166;2023-04-03T06:23:32;0.50;;;0.50;;
57891;SDS011;43708;48.828;9.166;2023-04-03T06:25:58;2.00;;;0.70;;
57891;SDS011;43708;48.828;9.166;2023-04-03T06:28:24;2.17;;;0.50;;
57891;SDS011;43708;48.828;9.166;2023-04-03T06:30:50;0.50;;;0.50;;
57891;SDS011;43708;48.828;9.166;2023-04-03T06:33:16;2.03;;;0.68;;
57891;SDS011;43708;48.828;9.166;2023-04-03T06:35:41;0.90;;;0.90;;
57891;SDS011;43708;48.828;9.166;2023-04-03T06:38:07;1.08;;;0.98;;
57891;SDS011;43708;48.828;9.166;2023-04-03T06:40:34;0.73;;;0.73;;
57891;SDS011;43708;48.828;9.166;2023-04-03T06:43:00;0.75;;;0.50;;
57891;SDS011;43708;48.828;9.166;2023-04-03T06:45:26;0.80;;;0.80;;
57891;SDS011;43708;48.828;9.166;2023-04-03T06:47:52;0.80;;;0.80;;
57891;SDS011;43708;48.828;9.166;2023-04-03T06:50:18;1.00;;;0.90;;
57891;SDS011;43708;48.828;9.166;2023-04-03T06:52:44;0.85;;;0.85;;
57891;SDS011;43708;48.828;9.166;2023-04-03T06:55:10;0.93;;;0.90;;
57891;SDS011;43708;48.828;9.166;2023-04-03T06:57:36;0.77;;;0.77;;
57891;SDS011;43708;48.828;9.166;2023-04-03T07:00:03;1.30;;;1.20;;
57891;SDS011;43708;48.828;9.166;2023-04-03T07:02:30;2.05;;;1.08;;
57891;SDS011;43708;48.828;9.166;2023-04-03T07:04:55;1.40;;;1.15;;
57891;SDS011;43708;48.828;9.166;2023-04-03T07:07:21;1.80;;;1.00;;
57891;SDS011;43708;48.828;9.166;2023-04-03T07:09:47;1.00;;;0.90;;
57891;SDS011;43708;48.828;9.166;2023-04-03T07:12:13;0.70;;;0.60;;
57891;SDS011;43708;48.828;9.166;2023-04-03T07:14:38;0.60;;;0.60;;
57891;SDS011;43708;48.828;9.166;2023-04-03T07:17:04;1.02;;;0.80;;
57891;SDS011;43708;48.828;9.166;2023-04-03T07:19:30;1.45;;;0.82;;
57891;SDS011;43708;48.828;9.166;2023-04-03T07:21:56;0.77;;;0.70;;
57891;SDS011;43708;48.828;9.166;2023-04-03T07:24:21;1.10;;;0.90;;
57891;SDS011;43708;48.828;9.166;2023-04-03T07:26:50;1.85;;;0.88;;
57891;SDS011;43708;48.828;9.166;2023-04-03T07:29:17;1.13;;;0.70;;
57891;SDS011;43708;48.828;9.166;2023-04-03T07:31:43;1.05;;;0.75;;
57891;SDS011;43708;48.828;9.166;2023-04-03T07:34:09;1.98;;;0.85;;
57891;SDS011;43708;48.828;9.166;2023-04-03T07:36:35;1.17;;;0.70;;
57891;SDS011;43708;48.828;9.166;2023-04-03T07:39:02;4.57;;;1.05;;
57891;SDS011;43708;48.828;9.166;2023-04-03T07:41:28;2.33;;;0.88;;
57891;SDS011;43708;48.828;9.166;2023-04-03T07:43:55;0.93;;;0.80;;
57891;SDS011;43708;48.828;9.166;2023-04-03T07:46:21;3.38;;;0.88;;
57891;SDS011;43708;48.828;9.166;2023-04-03T07:48:47;2.15;;;0.85;;
57891;SDS011;43708;48.828;9.166;2023-04-03T07:51:13;1.85;;;1.00;;
57891;SDS011;43708;48.828;9.166;2023-04-03T07:53:39;2.05;;;1.00;;
57891;SDS011;43708;48.828;9.166;2023-04-03T07:56:05;1.30;;;1.02;;
57891;SDS011;43708;48.828;9.166;2023-04-03T07:58:31;2.55;;;0.80;;
57891;SDS011;43708;48.828;9.166;2023-04-03T08:00:57;1.92;;;0.73;;
57891;SDS011;43708;48.828;9.166;2023-04-03T08:03:24;2.70;;;1.00;;
57891;SDS011;43708;48.828;9.166;2023-04-03T08:05:50;2.00;;;0.70;;
57891;SDS011;43708;48.828;9.166;2023-04-03T08:08:17;1.58;;;0.80;;
57891;SDS011;43708;48.828;9.166;2023-04-03T08:10:48;1.23;;;0.93;;
57891;SDS011;43708;48.828;9.166;2023-04-03T08:13:17;1.58;;;0.93;;
57891;SDS011;43708;48.828;9.166;2023-04-03T08:15:43;0.95;;;0.73;;
57891;SDS011;43708;48.828;9.166;2023-04-03T08:18:09;2.75;;;1.00;;
57891;SDS011;43708;48.828;9.166;2023-04-03T08:20:35;1.95;;;0.93;;
57891;SDS011;43708;48.828;9.166;2023-04-03T08:23:02;3.38;;;1.00;;
57891;SDS011;43708;48.828;9.166;2023-04-03T08:25:27;1.20;;;0.80;;
57891;SDS011;43708;48.828;9.166;2023-04-03T08:27:54;1.40;;;0.80;;
57891;SDS011;43708;48.828;9.166;2023-04-03T08:30:20;2.50;;;1.20;;
57891;SDS011;43708;48.828;9.166;2023-04-03T08:32:45;2.10;;;1.10;;
57891;SDS011;43708;48.828;9.166;2023-04-03T08:35:11;2.00;;;0.98;;
57891;SDS011;43708;48.828;9.166;2023-04-03T08:37:38;2.35;;;0.82;;
57891;SDS011;43708;48.828;9.166;2023-04-03T08:40:05;3.35;;;1.15;;
57891;SDS011;43708;48.828;9.166;2023-04-03T08:45:25;4.10;;;0.88;;
57891;SDS011;43708;48.828;9.166;2023-04-03T08:48:04;1.88;;;0.75;;
57891;SDS011;43708;48.828;9.166;2023-04-03T08:50:51;1.10;;;0.70;;
57891;SDS011;43708;48.828;9.166;2023-04-03T08:53:22;1.73;;;1.00;;
57891;SDS011;43708;48.828;9.166;2023-04-03T08:55:51;1.65;;;1.00;;
57891;SDS011;43708;48.828;9.166;2023-04-03T08:58:26;1.98;;;0.75;;
57891;SDS011;43708;48.828;9.166;2023-04-03T09:00:56;1.88;;;0.90;;
57891;SDS011;43708;48.828;9.166;2023-04-03T09:03:28;1.83;;;1.02;;
57891;SDS011;43708;48.828;9.166;2023-04-03T09:05:57;1.52;;;1.05;;
57891;SDS011;43708;48.828;9.166;2023-04-03T09:08:30;2.50;;;1.10;;
57891;SDS011;43708;48.828;9.166;2023-04-03T09:11:05;1.85;;;0.88;;
57891;SDS011;43708;48.828;9.166;2023-04-03T09:21:58;1.58;;;1.00;;
57891;SDS011;43708;48.828;9.166;2023-04-03T09:24:40;2.00;;;0.90;;
57891;SDS011;43708;48.828;9.166;2023-04-03T09:27:08;2.13;;;1.02;;
57891;SDS011;43708;48.828;9.166;2023-04-03T09:29:37;1.85;;;1.05;;
57891;SDS011;43708;48.828;9.166;2023-04-03T09:34:53;2.00;;;0.90;;
57891;SDS011;43708;48.828;9.166;2023-04-03T09:37:38;1.30;;;0.85;;
57891;SDS011;43708;48.828;9.166;2023-04-03T09:40:51;4.72;;;1.00;;
57891;SDS011;43708;48.828;9.166;2023-04-03T09:45:41;2.65;;;1.05;;
57891;SDS011;43708;48.828;9.166;2023-04-03T09:54:02;2.42;;;0.70;;
57891;SDS011;43708;48.828;9.166;2023-04-03T09:58:41;1.38;;;0.80;;
57891;SDS011;43708;48.828;9.166;2023-04-03T10:01:29;0.75;;;0.63;;
57891;SDS011;43708;48.828;9.166;2023-04-03T10:06:38;1.25;;;0.75;;
57891;SDS011;43708;48.828;9.166;2023-04-03T10:09:22;1.27;;;0.65;;
57891;SDS011;43708;48.828;9.166;2023-04-03T10:14:53;0.77;;;0.60;;
57891;SDS011;43708;48.828;9.166;2023-04-03T10:17:18;2.88;;;0.80;;
57891;SDS011;43708;48.828;9.166;2023-04-03T10:23:00;1.42;;;0.70;;
57891;SDS011;43708;48.828;9.166;2023-04-03T10:34:29;1.20;;;0.60;;
57891;SDS011;43708;48.828;9.166;2023-04-03T10:42:40;1.08;;;0.90;;
57891;SDS011;43708;48.828;9.166;2023-04-03T10:53:07;0.98;;;0.85;;
57891;SDS011;43708;48.828;9.166;2023-04-03T10:55:56;0.88;;;0.60;;
57891;SDS011;43708;48.828;9.166;2023-04-03T10:58:34;1.20;;;0.60;;
57891;SDS011;43708;48.828;9.166;2023-04-03T11:01:14;1.98;;;0.60;;
57891;SDS011;43708;48.828;9.166;2023-04-03T11:03:44;0.80;;;0.80;;
57891;SDS011;43708;48.828;9.166;2023-04-03T11:06:15;1.00;;;0.70;;
57891;SDS011;43708;48.828;9.166;2023-04-03T11:11:35;2.00;;;0.80;;
57891;SDS011;43708;48.828;9.166;2023-04-03T11:16:39;1.13;;;0.88;;
57891;SDS011;43708;48.828;9.166;2023-04-03T11:19:12;1.95;;;0.90;;
57891;SDS011;43708;48.828;9.166;2023-04-03T11:22:03;1.00;;;0.70;;
57891;SDS011;43708;48.828;9.166;2023-04-03T11:24:57;1.35;;;0.90;;
57891;SDS011;43708;48.828;9.166;2023-04-03T11:27:30;1.02;;;0.70;;
57891;SDS011;43708;48.828;9.166;2023-04-03T11:30:20;1.05;;;0.65;;
57891;SDS011;43708;48.828;9.166;2023-04-03T11:35:30;0.90;;;0.70;;
57891;SDS011;43708;48.828;9.166;2023-04-03T11:37:57;0.77;;;0.52;;
57891;SDS011;43708;48.828;9.166;2023-04-03T11:40:28;0.52;;;0.52;;
57891;SDS011;43708;48.828;9.166;2023-04-03T11:45:34;1.55;;;0.60;;
57891;SDS011;43708;48.828;9.166;2023-04-03T11:50:56;0.63;;;0.50;;
57891;SDS011;43708;48.828;9.166;2023-04-03T11:53:27;1.58;;;0.70;;
57891;SDS011;43708;48.828;9.166;2023-04-03T11:56:04;0.80;;;0.50;;
57891;SDS011;43708;48.828;9.166;2023-04-03T11:59:14;2.05;;;0.73;;
57891;SDS011;43708;48.828;9.166;2023-04-03T12:01:52;1.55;;;0.63;;
57891;SDS011;43708;48.828;9.166;2023-04-03T12:04:20;0.75;;;0.55;;
57891;SDS011;43708;48.828;9.166;2023-04-03T12:11:57;1.17;;;0.70;;
57891;SDS011;43708;48.828;9.166;2023-04-03T12:14:26;0.80;;;0.60;;
57891;SDS011;43708;48.828;9.166;2023-04-03T12:16:54;0.80;;;0.70;;
57891;SDS011;43708;48.828;9.166;2023-04-03T12:22:11;1.08;;;0.60;;
57891;SDS011;43708;48.828;9.166;2023-04-03T12:24:39;1.35;;;0.70;;
57891;SDS011;43708;48.828;9.166;2023-04-03T12:29:59;0.73;;;0.70;;
57891;SDS011;43708;48.828;9.166;2023-04-03T12:32:35;1.55;;;0.73;;
57891;SDS011;43708;48.828;9.166;2023-04-03T12:35:10;0.90;;;0.70;;
57891;SDS011;43708;48.828;9.166;2023-04-03T12:46:02;0.70;;;0.60;;
57891;SDS011;43708;48.828;9.166;2023-04-03T12:48:38;1.33;;;0.70;;
57891;SDS011;43708;48.828;9.166;2023-04-03T12:54:13;2.47;;;0.90;;
57891;SDS011;43708;48.828;9.166;2023-04-03T12:56:43;1.92;;;0.80;;
57891;SDS011;43708;48.828;9.166;2023-04-03T12:59:13;0.70;;;0.60;;
57891;SDS011;43708;48.828;9.166;2023-04-03T13:01:39;0.77;;;0.55;;
57891;SDS011;43708;48.828;9.166;2023-04-03T13:04:05;1.70;;;0.75;;
57891;SDS011;43708;48.828;9.166;2023-04-03T13:06:33;0.85;;;0.50;;
57891;SDS011;43708;48.828;9.166;2023-04-03T13:09:04;1.65;;;0.60;;
57891;SDS011;43708;48.828;9.166;2023-04-03T13:11:32;0.98;;;0.60;;
57891;SDS011;43708;48.828;9.166;2023-04-03T13:14:12;0.98;;;0.63;;
57891;SDS011;43708;48.828;9.166;2023-04-03T13:16:56;2.38;;;0.70;;
57891;SDS011;43708;48.828;9.166;2023-04-03T13:19:25;0.80;;;0.65;;
57891;SDS011;43708;48.828;9.166;2023-04-03T13:21:54;2.40;;;0.90;;
57891;SDS011;43708;48.828;9.166;2023-04-03T13:24:52;1.65;;;0.57;;
57891;SDS011;43708;48.828;9.166;2023-04-03T13:27:19;1.15;;;0.80;;
57891;SDS011;43708;48.828;9.166;2023-04-03T13:29:49;1.10;;;0.70;;
57891;SDS011;43708;48.828;9.166;2023-04-03T13:32:18;1.02;;;0.80;;
57891;SDS011;43708;48.828;9.166;2023-04-03T13:34:46;1.60;;;0.80;;
57891;SDS011;43708;48.828;9.166;2023-04-03T13:37:19;1.75;;;0.70;;
57891;SDS011;43708;48.828;9.166;2023-04-03T13:40:12;1.20;;;0.90;;
57891;SDS011;43708;48.828;9.166;2023-04-03T13:42:38;1.10;;;0.80;;
57891;SDS011;43708;48.828;9.166;2023-04-03T13:45:11;1.20;;;0.80;;
57891;SDS011;43708;48.828;9.166;2023-04-03T13:47:49;0.95;;;0.63;;
57891;SDS011;43708;48.828;9.166;2023-04-03T13:50:21;1.40;;;0.73;;
57891;SDS011;43708;48.828;9.166;2023-04-03T13:52:54;1.05;;;0.70;;
57891;SDS011;43708;48.828;9.166;2023-04-03T13:55:26;0.95;;;0.70;;
57891;SDS011;43708;48.828;9.166;2023-04-03T13:57:57;0.90;;;0.80;;
57891;SDS011;43708;48.828;9.166;2023-04-03T14:00:45;0.70;;;0.70;;
57891;SDS011;43708;48.828;9.166;2023-04-03T14:06:06;0.90;;;0.70;;
57891;SDS011;43708;48.828;9.166;2023-04-03T14:08:35;1.00;;;0.80;;
57891;SDS011;43708;48.828;9.166;2023-04-03T14:11:01;1.23;;;0.60;;
57891;SDS011;43708;48.828;9.166;2023-04-03T14:13:29;1.13;;;0.90;;
57891;SDS011;43708;48.828;9.166;2023-04-03T14:15:55;1.17;;;0.90;;
57891;SDS011;43708;48.828;9.166;2023-04-03T14:18:21;1.13;;;0.70;;
57891;SDS011;43708;48.828;9.166;2023-04-03T14:20:47;1.60;;;0.77;;
57891;SDS011;43708;48.828;9.166;2023-04-03T14:23:14;0.90;;;0.70;;
57891;SDS011;43708;48.828;9.166;2023-04-03T14:25:40;1.15;;;0.70;;
57891;SDS011;43708;48.828;9.166;2023-04-03T14:28:15;1.58;;;0.70;;
57891;SDS011;43708;48.828;9.166;2023-04-03T14:30:46;1.00;;;0.90;;
57891;SDS011;43708;48.828;9.166;2023-04-03T14:33:14;2.45;;;0.88;;
57891;SDS011;43708;48.828;9.166;2023-04-03T14:35:43;1.65;;;0.90;;
57891;SDS011;43708;48.828;9.166;2023-04-03T14:38:22;1.00;;;0.77;;
57891;SDS011;43708;48.828;9.166;2023-04-03T14:40:53;2.55;;;0.70;;
57891;SDS011;43708;48.828;9.166;2023-04-03T14:43:20;0.95;;;0.52;;
57891;SDS011;43708;48.828;9.166;2023-04-03T14:45:46;1.98;;;0.70;;
57891;SDS011;43708;48.828;9.166;2023-04-03T14:48:16;0.80;;;0.65;;
57891;SDS011;43708;48.828;9.166;2023-04-03T14:50:51;1.02;;;0.63;;
57891;SDS011;43708;48.828;9.166;2023-04-03T14:53:17;0.75;;;0.57;;
57891;SDS011;43708;48.828;9.166;2023-04-03T14:55:47;1.90;;;0.98;;
57891;SDS011;43708;48.828;9.166;2023-04-03T14:58:15;1.08;;;0.77;;
57891;SDS011;43708;48.828;9.166;2023-04-03T15:00:42;0.80;;;0.65;;
57891;SDS011;43708;48.828;9.166;2023-04-03T15:03:15;1.48;;;0.80;;
57891;SDS011;43708;48.828;9.166;2023-04-03T15:05:43;1.15;;;0.80;;
57891;SDS011;43708;48.828;9.166;2023-04-03T15:08:16;1.02;;;0.57;;
57891;SDS011;43708;48.828;9.166;2023-04-03T15:10:43;0.65;;;0.55;;
57891;SDS011;43708;48.828;9.166;2023-04-03T15:13:10;0.93;;;0.73;;
57891;SDS011;43708;48.828;9.166;2023-04-03T15:15:37;0.98;;;0.75;;
57891;SDS011;43708;48.828;9.166;2023-04-03T15:18:03;2.50;;;1.00;;
57891;SDS011;43708;48.828;9.166;2023-04-03T15:20:29;1.30;;;0.70;;
57891;SDS011;43708;48.828;9.166;2023-04-03T15:22:55;1.05;;;0.60;;
57891;SDS011;43708;48.828;9.166;2023-04-03T15:25:22;0.63;;;0.60;;
57891;SDS011;43708;48.828;9.166;2023-04-03T15:27:48;0.60;;;0.50;;
57891;SDS011;43708;48.828;9.166;2023-04-03T15:30:15;0.77;;;0.70;;
57891;SDS011;43708;48.828;9.166;2023-04-03T15:32:42;0.90;;;0.73;;
57891;SDS011;43708;48.828;9.166;2023-04-03T15:35:08;0.88;;;0.70;;
57891;SDS011;43708;48.828;9.166;2023-04-03T15:37:34;2.65;;;0.68;;
57891;SDS011;43708;48.828;9.166;2023-04-03T15:40:00;2.35;;;0.75;;
57891;SDS011;43708;48.828;9.166;2023-04-03T15:42:25;1.95;;;1.48;;
57891;SDS011;43708;48.828;9.166;2023-04-03T15:44:51;2.22;;;1.15;;
57891;SDS011;43708;48.828;9.166;2023-04-03T15:47:17;1.38;;;1.13;;
57891;SDS011;43708;48.828;9.166;2023-04-03T15:49:42;2.15;;;1.30;;
57891;SDS011;43708;48.828;9.166;2023-04-03T15:52:10;1.65;;;1.30;;
57891;SDS011;43708;48.828;9.166;2023-04-03T15:54:35;1.20;;;0.93;;
57891;SDS011;43708;48.828;9.166;2023-04-03T15:57:01;1.48;;;1.00;;
57891;SDS011;43708;48.828;9.166;2023-04-03T15:59:26;1.40;;;0.90;;
57891;SDS011;43708;48.828;9.166;2023-04-03T16:01:54;1.65;;;1.02;;
57891;SDS011;43708;48.828;9.166;2023-04-03T16:04:20;1.38;;;0.90;;
57891;SDS011;43708;48.828;9.166;2023-04-03T16:06:49;1.20;;;1.10;;
57891;SDS011;43708;48.828;9.166;2023-04-03T16:09:14;1.38;;;1.00;;
57891;SDS011;43708;48.828;9.166;2023-04-03T16:11:40;1.35;;;1.25;;
57891;SDS011;43708;48.828;9.166;2023-04-03T16:14:07;2.30;;;1.20;;
57891;SDS011;43708;48.828;9.166;2023-04-03T16:16:32;1.92;;;1.10;;
57891;SDS011;43708;48.828;9.166;2023-04-03T16:18:58;1.30;;;0.90;;
57891;SDS011;43708;48.828;9.166;2023-04-03T16:21:24;1.13;;;0.93;;
57891;SDS011;43708;48.828;9.166;2023-04-03T16:23:50;1.48;;;1.10;;
57891;SDS011;43708;48.828;9.166;2023-04-03T16:26:15;1.30;;;0.95;;
57891;SDS011;43708;48.828;9.166;2023-04-03T16:28:42;1.77;;;1.17;;
57891;SDS011;43708;48.828;9.166;2023-04-03T16:31:08;1.27;;;0.88;;
57891;SDS011;43708;48.828;9.166;2023-04-03T16:33:34;2.53;;;0.98;;
57891;SDS011;43708;48.828;9.166;2023-04-03T16:36:01;2.75;;;0.82;;
57891;SDS011;43708;48.828;9.166;2023-04-03T16:38:28;1.05;;;0.90;;
57891;SDS011;43708;48.828;9.166;2023-04-03T16:40:54;0.90;;;0.80;;
57891;SDS011;43708;48.828;9.166;2023-04-03T16:43:22;1.05;;;0.95;;
57891;SDS011;43708;48.828;9.166;2023-04-03T16:45:50;0.70;;;0.70;;